Time;durP1;ratioP1;P1;durP2;ratioP2;P2;SDS_P1;SDS_P2;PMS_P1;PMS_P2;Temp;Humidity;BMP_temperature;BMP_pressure;BME280_temperature;BME280_humidity;BME280_pressure;Samples;Min_cycle;Max_cycle;Signal;HPM_P1;HPM_P2
2022/03/26 00:10:24;;;;;;;32.67;16.20;;;;;;;10.41;65.20;100993.02;739239;1155;115275;-71
2022/03/26 00:25:26;;;;;;;32.98;16.58;;;;;;;10.26;66.08;100980.08;739428;1154;115693;-72
2022/03/26 00:40:28;;;;;;;34.55;17.33;;;;;;;10.09;66.43;100957.75;739160;1154;115149;-71
2022/03/26 00:55:30;;;;;;;42.40;18.45;;;;;;;9.99;68.08;100920.11;739121;1155;115813;-72
2022/03/26 01:10:34;;;;;;;36.40;15.97;;;;;;;9.95;69.25;100913.40;739427;1155;115690;-71
2022/03/26 01:25:36;;;;;;;35.80;16.50;;;;;;;9.77;68.54;100885.02;738934;1154;115038;-71
2022/03/26 01:40:38;;;;;;;34.93;16.38;;;;;;;9.63;70.27;100867.73;739744;1155;115325;-71
2022/03/26 01:55:41;;;;;;;61.75;25.88;;;;;;;9.59;71.03;100855.78;739726;1154;115393;-72
2022/03/26 02:10:43;;;;;;;37.80;18.90;;;;;;;9.69;71.27;100848.09;740118;1155;114549;-71
2022/03/26 02:25:45;;;;;;;36.60;16.93;;;;;;;9.75;72.17;100854.64;739141;1154;116002;-72
2022/03/26 02:40:48;;;;;;;42.37;17.77;;;;;;;9.78;74.14;100859.67;739315;1154;114923;-73
2022/03/26 02:55:52;;;;;;;39.20;18.20;;;;;;;9.60;75.73;100822.58;739823;1155;115591;-72
2022/03/26 03:10:55;;;;;;;36.70;18.10;;;;;;;9.56;76.15;100798.40;739290;1155;114471;-72
2022/03/26 03:25:57;;;;;;;39.63;19.20;;;;;;;9.29;77.03;100755.02;739107;1155;114557;-71
2022/03/26 03:40:59;;;;;;;45.97;21.83;;;;;;;9.09;77.46;100739.96;739167;1155;114133;-71
2022/03/26 03:56:02;;;;;;;42.25;17.65;;;;;;;8.84;78.60;100723.45;739157;1155;115378;-72
2022/03/26 04:11:04;;;;;;;40.30;17.70;;;;;;;8.75;79.49;100713.67;739659;1154;115465;-71
2022/03/26 04:26:08;;;;;;;36.80;17.80;;;;;;;8.71;81.83;100684.31;739461;1154;114836;-71
2022/03/26 04:41:10;;;;;;;36.70;17.90;;;;;;;8.83;84.36;100680.78;739810;1155;115487;-70
2022/03/26 04:56:12;;;;;;;40.00;18.00;;;;;;;8.83;85.74;100670.31;739689;1155;114960;-70
2022/03/26 05:11:15;;;;;;;36.47;16.50;;;;;;;9.06;85.18;100696.53;739706;1155;115509;-70
2022/03/26 05:26:21;;;;;;;35.73;15.88;;;;;;;9.29;85.69;100693.95;739182;1155;114848;-70
2022/03/26 05:41:24;;;;;;;35.63;16.15;;;;;;;9.55;86.31;100712.91;739687;1155;115515;-70
2022/03/26 05:56:26;;;;;;;34.70;15.07;;;;;;;9.85;85.94;100713.29;739670;1154;115084;-71
2022/03/26 06:11:28;;;;;;;32.55;15.20;;;;;;;9.98;85.67;100729.72;739561;1155;114839;-71
2022/03/26 06:26:30;;;;;;;68.70;38.53;;;;;;;10.21;84.84;100742.79;739141;1155;115590;-75
2022/03/26 06:41:38;;;;;;;59.23;28.00;;;;;;;10.25;84.42;100758.14;739420;1155;115564;-81
2022/03/26 06:56:41;;;;;;;72.98;31.83;;;;;;;10.33;84.62;100771.50;739443;1155;114282;-84
2022/03/26 07:11:43;;;;;;;74.03;33.15;;;;;;;10.51;84.64;100772.81;739629;1155;115601;-74
2022/03/26 07:26:45;;;;;;;33.35;17.45;;;;;;;10.66;85.10;100776.81;740154;1155;115172;-74
2022/03/26 07:41:47;;;;;;;38.08;17.45;;;;;;;10.69;84.97;100788.84;740189;1153;114540;-75
2022/03/26 07:56:50;;;;;;;34.40;16.40;;;;;;;10.79;85.74;100790.59;739691;1154;115392;-74
2022/03/26 08:11:52;;;;;;;38.17;17.67;;;;;;;10.93;85.43;100789.49;740354;1155;114219;-74
2022/03/26 08:26:54;;;;;;;37.30;18.70;;;;;;;11.16;85.52;100797.27;741010;1155;115373;-86
2022/03/26 08:41:58;;;;;;;53.70;22.10;;;;;;;11.13;85.80;100806.23;742398;1155;115260;-86
2022/03/26 08:57:01;;;;;;;41.67;22.27;;;;;;;11.29;84.86;100810.22;741334;1154;114216;-87
2022/03/26 09:12:03;;;;;;;29.13;16.20;;;;;;;11.45;84.11;100821.11;741196;1155;115015;-84
2022/03/26 09:27:06;;;;;;;51.50;23.77;;;;;;;11.46;83.92;100828.03;741226;1155;115514;-82
2022/03/26 09:42:09;;;;;;;24.63;11.93;;;;;;;11.61;82.95;100848.73;741522;1155;115246;-81
2022/03/26 09:57:11;;;;;;;31.55;16.35;;;;;;;11.72;81.90;100853.95;740578;1155;114746;-86
2022/03/26 10:12:18;;;;;;;27.68;15.30;;;;;;;11.94;81.08;100860.00;740057;1155;115813;-86
2022/03/26 10:27:21;;;;;;;21.43;12.65;;;;;;;12.10;80.12;100870.94;740169;1155;114389;-86
2022/03/26 10:42:33;;;;;;;26.83;13.78;;;;;;;12.03;79.05;100880.29;740417;1154;115287;-74
2022/03/26 10:57:36;;;;;;;51.60;23.60;;;;;;;12.14;77.97;100880.22;740430;1155;115104;-85
2022/03/26 11:12:43;;;;;;;21.33;11.08;;;;;;;12.59;76.34;100888.69;739987;1155;115652;-75
2022/03/26 11:27:52;;;;;;;14.98;6.05;;;;;;;12.72;72.35;100901.63;740411;1155;116116;-82
2022/03/26 11:42:56;;;;;;;16.83;6.10;;;;;;;12.59;67.24;100922.91;741542;1154;115722;-82
2022/03/26 11:58:23;;;;;;;10.63;4.13;;;;;;;12.62;65.23;100928.75;741352;1155;114553;-81
2022/03/26 12:13:32;;;;;;;8.50;4.45;;;;;;;12.80;62.98;100936.00;740734;1154;114412;-80
2022/03/26 12:28:37;;;;;;;26.10;9.18;;;;;;;13.37;58.99;100938.09;740386;1154;115287;-79
2022/03/26 12:43:39;;;;;;;15.28;6.15;;;;;;;14.89;57.56;100951.41;740397;1155;114910;-79
2022/03/26 12:59:15;;;;;;;9.58;3.95;;;;;;;16.10;53.54;100977.50;740737;1154;114410;-83
2022/03/26 13:14:11;;;;;;;10.83;4.15;;;;;;;16.85;51.19;100981.41;740554;1155;114135;-88
2022/03/26 13:29:30;;;;;;;9.98;3.68;;;;;;;15.27;47.07;101005.02;741197;1155;114778;-86
2022/03/26 13:44:33;;;;;;;29.70;12.15;;;;;;;17.18;47.09;101031.91;741145;1155;115426;-74
2022/03/26 13:59:37;;;;;;;10.70;4.43;;;;;;;22.19;42.79;101049.30;739278;1155;115321;-74
2022/03/26 14:14:42;;;;;;;15.70;5.75;;;;;;;27.16;35.76;101076.78;738976;1154;114312;-74
2022/03/26 14:29:45;;;;;;;13.83;7.35;;;;;;;28.66;33.52;101067.88;739749;1154;114397;-72
2022/03/26 14:44:50;;;;;;;13.33;3.33;;;;;;;21.00;33.90;101087.85;740534;1155;115506;-74
2022/03/26 14:59:53;;;;;;;8.33;3.75;;;;;;;18.91;36.27;101127.64;741462;1155;115261;-73
2022/03/26 15:14:55;;;;;;;6.93;2.75;;;;;;;23.85;33.99;101154.77;741259;1155;115588;-76
2022/03/26 15:29:58;;;;;;;8.45;2.80;;;;;;;25.00;32.53;101168.03;740333;1155;115676;-74
2022/03/26 15:45:04;;;;;;;10.73;4.03;;;;;;;21.87;33.86;101206.39;740152;1155;114684;-75
2022/03/26 16:00:07;;;;;;;19.50;9.03;;;;;;;17.88;35.24;101232.42;739972;1154;115547;-78
2022/03/26 16:15:10;;;;;;;56.95;9.73;;;;;;;21.75;33.27;101268.27;739747;1155;115199;-78
2022/03/26 16:30:13;;;;;;;25.95;11.58;;;;;;;14.36;35.75;101291.52;739733;1155;115215;-77
2022/03/26 16:45:15;;;;;;;13.98;4.88;;;;;;;12.59;37.42;101294.02;740239;1154;114768;-77
2022/03/26 17:00:17;;;;;;;134.83;44.38;;;;;;;10.62;39.37;101332.50;740327;1154;115511;-73
2022/03/26 17:15:20;;;;;;;36.18;12.70;;;;;;;9.57;42.85;101359.83;740219;1155;116014;-73
2022/03/26 17:30:23;;;;;;;44.48;17.60;;;;;;;8.96;43.13;101378.57;739783;1154;115681;-72
2022/03/26 17:45:26;;;;;;;49.58;16.50;;;;;;;8.58;44.66;101423.70;740117;1155;114538;-73
2022/03/26 18:00:29;;;;;;;62.37;21.23;;;;;;;8.21;46.59;101441.56;739553;1155;115490;-73
2022/03/26 18:15:33;;;;;;;38.83;13.97;;;;;;;7.89;47.52;101447.78;740156;1155;114575;-73
2022/03/26 18:30:35;;;;;;;66.30;20.87;;;;;;;7.57;48.46;101483.58;739864;1154;115444;-72
2022/03/26 18:45:38;;;;;;;47.60;15.70;;;;;;;7.35;49.18;101499.59;739601;1154;114841;-74
2022/03/26 19:00:42;;;;;;;87.17;27.00;;;;;;;7.05;50.04;101523.80;740395;1155;115138;-76
2022/03/26 19:15:46;;;;;;;173.97;46.97;;;;;;;6.74;50.41;101546.30;740284;1155;114035;-77
2022/03/26 19:30:49;;;;;;;125.27;39.53;;;;;;;6.43;51.14;101566.96;739979;1155;115799;-72
2022/03/26 19:45:54;;;;;;;116.98;32.85;;;;;;;6.26;51.42;101587.81;740324;1154;114778;-73
2022/03/26 20:01:00;;;;;;;146.95;37.70;;;;;;;6.01;51.83;101603.80;740069;1155;115606;-72
2022/03/26 20:31:34;;;;;;;47.00;15.50;;;;;;;5.52;53.51;101654.59;740116;1154;115697;-73
2022/03/26 20:46:37;;;;;;;120.48;31.10;;;;;;;5.44;53.13;101678.36;740438;1155;114092;-72
2022/03/26 21:01:40;;;;;;;45.08;15.98;;;;;;;5.24;54.53;101699.20;740562;1155;115783;-74
2022/03/26 21:16:44;;;;;;;95.03;24.90;;;;;;;5.08;53.93;101718.08;740100;1154;115679;-72
2022/03/26 21:31:47;;;;;;;110.28;26.90;;;;;;;4.76;55.22;101741.04;740384;1155;115525;-73
2022/03/26 21:46:51;;;;;;;54.20;16.08;;;;;;;4.62;56.46;101746.80;740033;1155;114853;-72
2022/03/26 22:01:53;;;;;;;70.88;17.48;;;;;;;4.54;55.43;101763.60;739602;1155;116057;-74
2022/03/26 22:16:58;;;;;;;21.53;7.08;;;;;;;4.29;58.00;101767.17;742335;1155;115313;-71
2022/03/26 22:32:02;;;;;;;22.25;7.78;;;;;;;4.14;57.37;101784.16;739979;1154;115512;-72
2022/03/26 22:47:05;;;;;;;25.13;7.80;;;;;;;3.96;58.38;101790.89;739572;1154;115505;-71
2022/03/26 23:02:08;;;;;;;14.03;5.33;;;;;;;3.93;57.60;101804.84;739465;1155;114588;-71
2022/03/26 23:17:10;;;;;;;131.48;25.70;;;;;;;3.68;58.20;101815.20;739136;1155;115420;-71
2022/03/26 23:32:13;;;;;;;24.48;7.80;;;;;;;3.43;58.32;101818.67;739682;1155;115650;-72
2022/03/26 23:47:15;;;;;;;32.55;11.38;;;;;;;3.21;58.55;101834.09;739839;1155;114674;-71
